createdAt,value
2019-04-10T00:03:43.752Z,14.53
2019-04-10T00:08:46.301Z,14.20
2019-04-10T00:13:49.055Z,14.37
2019-04-10T00:18:51.239Z,14.60
2019-04-10T00:23:53.206Z,14.67
2019-04-10T00:28:56.044Z,13.90
2019-04-10T00:33:58.983Z,14.63
2019-04-10T00:39:02.271Z,14.40
2019-04-10T00:44:04.379Z,13.73
2019-04-10T00:49:07.184Z,14.30
2019-04-10T00:54:09.850Z,14.30
2019-04-10T00:59:12.175Z,14.13
2019-04-10T01:04:14.392Z,14.47
2019-04-10T01:09:17.316Z,14.17
2019-04-10T01:14:19.595Z,13.50
2019-04-10T01:19:21.738Z,13.57
2019-04-10T01:24:23.796Z,13.27
2019-04-10T01:29:25.764Z,14.37
2019-04-10T01:34:27.725Z,14.17
2019-04-10T01:39:31.111Z,14.50
2019-04-10T01:44:33.224Z,14.60
2019-04-10T01:49:35.337Z,15.10
2019-04-10T01:54:37.503Z,15.20
2019-04-10T01:59:40.673Z,14.27
2019-04-10T02:04:44.852Z,14.10
2019-04-10T02:09:47.722Z,14.73
2019-04-10T02:14:49.890Z,15.20
2019-04-10T02:19:52.077Z,15.17
2019-04-10T02:24:54.160Z,15.83
2019-04-10T02:29:56.154Z,16.57
2019-04-10T02:34:58.314Z,15.47
2019-04-10T02:40:02.924Z,15.27
2019-04-10T02:45:06.002Z,16.00
2019-04-10T02:50:10.434Z,15.63
2019-04-10T02:55:14.328Z,17.00
2019-04-10T03:00:18.057Z,15.67
2019-04-10T03:05:22.984Z,16.67
2019-04-10T03:10:33.497Z,18.00
2019-04-10T03:15:29.669Z,18.50
2019-04-10T03:20:32.260Z,18.73
2019-04-10T03:25:35.160Z,18.20
2019-04-10T03:30:39.411Z,16.67
2019-04-10T03:35:45.199Z,18.50
2019-04-10T03:40:48.050Z,18.50
2019-04-10T03:45:50.131Z,19.23
2019-04-10T03:50:52.254Z,19.73
2019-04-10T03:55:57.094Z,18.40
2019-04-10T04:00:59.254Z,18.57
2019-04-10T04:06:01.606Z,18.90
2019-04-10T04:11:04.847Z,17.93
2019-04-10T04:16:07.107Z,18.87
2019-04-10T04:21:09.732Z,18.30
2019-04-10T04:26:12.689Z,19.30
2019-04-10T04:31:15.965Z,19.77
2019-04-10T04:36:18.321Z,19.60
2019-04-10T04:41:20.396Z,19.03
2019-04-10T04:46:22.449Z,19.10
2019-04-10T04:51:25.832Z,18.07
2019-04-10T04:56:28.327Z,18.17
2019-04-10T05:01:30.410Z,17.70
2019-04-10T05:06:32.961Z,18.43
2019-04-10T05:11:36.375Z,18.60
2019-04-10T05:16:39.525Z,18.77
2019-04-10T05:21:41.709Z,17.77
2019-04-10T05:26:44.807Z,17.60
2019-04-10T05:31:47.163Z,17.60
2019-04-10T05:36:49.261Z,16.63
2019-04-10T05:41:51.299Z,17.83
2019-04-10T05:46:53.454Z,16.77
2019-04-10T05:51:55.659Z,16.67
2019-04-10T05:56:58.980Z,15.60
2019-04-10T06:02:01.184Z,15.30
2019-04-10T06:07:03.235Z,15.37
2019-04-10T06:12:05.862Z,16.67
2019-04-10T06:17:10.073Z,14.00
2019-04-10T06:22:12.773Z,15.30
2019-04-10T06:27:15.056Z,14.93
2019-04-10T06:32:17.119Z,15.80
2019-04-10T06:37:19.203Z,15.27
2019-04-10T06:42:22.475Z,14.83
2019-04-10T06:47:24.924Z,14.13
2019-04-10T06:52:27.079Z,14.00
2019-04-10T06:57:30.286Z,12.20
2019-04-10T07:02:34.597Z,12.97
2019-04-10T07:07:49.878Z,12.73
2019-04-10T07:12:41.628Z,11.30
2019-04-10T07:17:44.763Z,11.47
2019-04-10T07:22:49.352Z,11.20
2019-04-10T07:27:52.357Z,11.27
2019-04-10T07:32:55.135Z,10.83
2019-04-10T07:37:58.462Z,11.67
2019-04-10T07:43:02.137Z,10.23
2019-04-10T07:48:04.519Z,10.10
2019-04-10T07:53:06.957Z,10.20
2019-04-10T07:58:09.031Z,10.60
2019-04-10T08:03:11.103Z,9.50
2019-04-10T08:08:13.223Z,9.47
2019-04-10T08:13:16.145Z,9.33
2019-04-10T08:18:18.969Z,8.07
2019-04-10T08:23:21.811Z,7.87
2019-04-10T08:28:24.211Z,7.23
2019-04-10T08:33:26.114Z,6.57
2019-04-10T08:38:28.284Z,7.27
2019-04-10T08:43:31.266Z,6.23
2019-04-10T08:48:34.666Z,6.10
2019-04-10T08:53:36.865Z,6.50
2019-04-10T08:58:39.157Z,5.77
2019-04-10T09:03:41.352Z,6.27
2019-04-10T09:08:43.686Z,6.10
2019-04-10T09:13:46.447Z,5.30
2019-04-10T09:18:49.496Z,5.53
2019-04-10T09:23:54.402Z,5.10
2019-04-10T09:28:56.983Z,4.37
2019-04-10T09:33:59.267Z,4.27
2019-04-10T09:39:01.328Z,4.97
2019-04-10T09:44:04.531Z,4.80
2019-04-10T09:49:06.983Z,4.87
2019-04-10T09:54:09.890Z,4.77
2019-04-10T09:59:12.117Z,4.33
2019-04-10T10:04:15.353Z,4.63
2019-04-10T10:09:17.697Z,5.03
2019-04-10T10:14:20.887Z,5.03
2019-04-10T10:19:23.743Z,4.43
2019-04-10T10:24:28.781Z,5.00
2019-04-10T10:29:30.983Z,4.97
2019-04-10T10:34:33.034Z,5.17
2019-04-10T10:39:35.081Z,5.83
2019-04-10T10:44:38.346Z,5.67
2019-04-10T10:49:40.502Z,6.17
2019-04-10T10:54:43.246Z,4.77
2019-04-10T10:59:46.055Z,4.93
2019-04-10T11:04:48.498Z,5.30
2019-04-10T11:09:53.134Z,5.00
2019-04-10T11:14:56.258Z,4.80
2019-04-10T11:19:59.496Z,4.83
2019-04-10T11:25:01.762Z,4.80
2019-04-10T11:30:05.441Z,5.10
2019-04-10T11:35:08.038Z,4.97
2019-04-10T11:40:12.203Z,4.83
2019-04-10T11:45:17.091Z,4.47
2019-04-10T11:50:19.472Z,4.70
2019-04-10T11:55:25.796Z,4.60
2019-04-10T12:00:45.361Z,5.13
2019-04-10T12:05:42.099Z,4.80
2019-04-10T12:15:48.505Z,4.87
2019-04-10T12:20:51.531Z,5.23
2019-04-10T12:25:53.790Z,4.67
2019-04-10T12:30:55.872Z,4.27
2019-04-10T12:35:58.248Z,4.47
2019-04-10T12:41:01.349Z,4.33
2019-04-10T12:46:04.562Z,4.40
2019-04-10T12:51:07.700Z,4.40
2019-04-10T12:56:10.250Z,4.30
2019-04-10T13:01:14.251Z,4.10
2019-04-10T13:06:17.867Z,4.57
2019-04-10T13:11:20.495Z,4.43
2019-04-10T13:16:23.842Z,4.77
2019-04-10T13:21:26.398Z,4.10
2019-04-10T13:26:28.758Z,5.53
2019-04-10T13:31:30.793Z,5.07
2019-04-10T13:36:33.002Z,4.90
2019-04-10T13:41:35.079Z,4.47
2019-04-10T13:46:37.288Z,4.03
2019-04-10T13:51:39.378Z,4.67
2019-04-10T13:56:41.467Z,5.43
2019-04-10T14:01:43.947Z,3.97
2019-04-10T14:06:48.813Z,4.60
2019-04-10T14:11:51.260Z,4.23
2019-04-10T14:16:53.613Z,4.60
2019-04-10T14:21:55.734Z,4.00
2019-04-10T14:27:21.436Z,4.20
2019-04-10T14:32:35.965Z,4.40
2019-04-10T14:37:38.128Z,4.27
2019-04-10T14:42:40.349Z,4.13
2019-04-10T14:47:43.443Z,4.27
2019-04-10T14:52:45.741Z,3.87
2019-04-10T14:57:47.801Z,3.57
2019-04-10T15:02:50.713Z,3.70
2019-04-10T15:07:53.280Z,3.70
2019-04-10T15:13:06.747Z,3.57
2019-04-10T15:17:59.498Z,3.80
2019-04-10T15:23:01.558Z,3.37
2019-04-10T15:28:04.346Z,3.63
2019-04-10T15:33:06.766Z,3.07
2019-04-10T15:38:09.460Z,3.27
2019-04-10T15:43:12.608Z,3.30
2019-04-10T15:48:14.899Z,3.73
2019-04-10T15:53:18.026Z,3.40
2019-04-10T15:58:21.416Z,4.30
2019-04-10T16:03:23.978Z,3.90
2019-04-10T16:08:28.155Z,4.00
2019-04-10T16:13:38.840Z,3.57
2019-04-10T16:18:41.717Z,5.53
2019-04-10T16:23:48.194Z,5.40
2019-04-10T16:28:51.371Z,3.87
2019-04-10T16:33:54.613Z,3.70
2019-04-10T16:38:57.441Z,3.80
2019-04-10T16:44:00.534Z,3.33
2019-04-10T16:49:02.752Z,4.23
2019-04-10T16:54:04.841Z,3.27
2019-04-10T16:59:06.876Z,3.70
2019-04-10T17:04:09.124Z,4.20
2019-04-10T17:09:15.221Z,3.50
2019-04-10T17:14:17.524Z,4.00
2019-04-10T17:19:19.888Z,4.00
2019-04-10T17:24:22.954Z,3.93
2019-04-10T17:29:25.299Z,3.63
2019-04-10T17:34:27.479Z,4.10
2019-04-10T17:39:29.552Z,4.07
2019-04-10T17:44:31.861Z,3.97
2019-04-10T17:49:34.041Z,4.17
2019-04-10T17:54:36.681Z,3.90
2019-04-10T17:59:38.958Z,4.30
2019-04-10T18:04:42.151Z,4.10
2019-04-10T18:09:44.430Z,4.37
2019-04-10T18:14:47.168Z,4.33
2019-04-10T18:19:50.252Z,4.30
2019-04-10T18:24:53.672Z,4.73
2019-04-10T18:29:55.937Z,4.53
2019-04-10T18:34:58.292Z,3.80
2019-04-10T18:40:01.709Z,4.43
2019-04-10T18:45:05.693Z,4.27
2019-04-10T18:50:08.102Z,4.43
2019-04-10T18:55:10.197Z,6.27
2019-04-10T19:00:34.477Z,5.20
2019-04-10T19:05:40.265Z,5.70
2019-04-10T19:10:43.254Z,5.47
2019-04-10T19:15:46.887Z,4.53
2019-04-10T19:21:08.617Z,4.30
2019-04-10T19:26:13.858Z,4.80
2019-04-10T19:31:20.059Z,5.33
2019-04-10T19:36:23.761Z,4.40
2019-04-10T19:41:32.814Z,4.13
2019-04-10T19:46:31.358Z,3.90
2019-04-10T19:51:34.382Z,4.23
2019-04-10T19:56:36.978Z,4.17
2019-04-10T20:01:39.579Z,3.97
2019-04-10T20:06:42.700Z,4.40
2019-04-10T20:11:52.070Z,4.30
2019-04-10T20:16:49.462Z,4.20
2019-04-10T20:21:52.412Z,10.17
2019-04-10T20:26:55.838Z,4.90
2019-04-10T20:31:58.586Z,4.87
2019-04-10T20:37:05.956Z,4.30
2019-04-10T20:42:05.827Z,4.60
2019-04-10T20:47:08.803Z,8.27
2019-04-10T20:52:11.965Z,4.70
2019-04-10T20:57:15.148Z,4.37
2019-04-10T21:02:18.080Z,4.50
2019-04-10T21:07:21.338Z,4.37
2019-04-10T21:12:23.829Z,4.10
2019-04-10T21:17:26.073Z,4.40
2019-04-10T21:22:28.674Z,4.13
2019-04-10T21:27:33.542Z,3.93
2019-04-10T21:32:56.737Z,4.30
2019-04-10T21:37:59.209Z,4.30
2019-04-10T21:43:01.614Z,4.50
2019-04-10T21:48:04.192Z,4.80
2019-04-10T21:53:06.353Z,5.03
2019-04-10T21:58:08.429Z,5.67
2019-04-10T22:03:11.235Z,4.40
2019-04-10T22:08:29.518Z,5.53
2019-04-10T22:13:32.286Z,4.53
2019-04-10T22:18:34.472Z,5.97
2019-04-10T22:23:36.563Z,4.50
2019-04-10T22:28:39.377Z,4.47
2019-04-10T22:33:42.569Z,4.53
2019-04-10T22:38:44.795Z,5.00
2019-04-10T22:43:47.050Z,4.97
2019-04-10T22:48:50.055Z,4.30
2019-04-10T22:53:53.424Z,4.50
2019-04-10T22:58:55.687Z,4.80
2019-04-10T23:03:57.746Z,5.10
2019-04-10T23:09:00.105Z,4.70
2019-04-10T23:14:02.655Z,4.30
2019-04-10T23:19:05.719Z,4.87
2019-04-10T23:24:07.826Z,5.07
2019-04-10T23:29:09.939Z,4.87
2019-04-10T23:34:12.545Z,4.80
2019-04-10T23:39:14.739Z,4.90
2019-04-10T23:44:16.813Z,4.47
2019-04-10T23:49:19.522Z,5.13
2019-04-10T23:54:21.900Z,4.70
2019-04-10T23:59:23.962Z,5.33
